Data for 06/09/2006

Time Sea-Level Adjusted Pressure Absolute Pressure Temperature Relative Humidity Dew Point   
(mb) (inHg) (mb) (inHg) (C) (F) (%) (C) (F)
00:05 1018 30.06 847 25.01 11.6 52.9 83 8.8 47.9
00:10 1018 30.06 847 25.01 11.4 52.6 82 8.5 47.3
00:15 1018 30.06 847 25.01 11.6 52.8 82 8.5 47.4
00:20 1018 30.06 847 25.01 11.5 52.8 80 8.3 46.9
00:25 1018 30.06 847 25.01 11.6 52.9 81 8.5 47.3
00:30 1018 30.06 847 25.01 11.6 52.8 81 8.5 47.2
00:35 1018 30.06 847 25.01 11.4 52.4 83 8.6 47.4
00:40 1018 30.06 847 25.01 11 51.8 85 8.6 47.4
00:45 1018 30.06 847 25.01 10.7 51.3 87 8.6 47.5
00:50 1018 30.06 847 25.01 10.4 50.8 87 8.4 47
00:55 1018 30.06 847 25.01 10.3 50.6 87 8.2 46.8
01:00 1018 30.06 847 25.01 10.3 50.5 87 8.2 46.8
01:05 1018 30.06 847 25.01 10.3 50.5 87 8.2 46.8
01:10 1018 30.06 847 25.01 10.4 50.7 86 8.1 46.7
01:15 1018 30.06 847 25.01 10.6 51 85 8.1 46.6
01:20 1018 30.06 847 25.01 10.6 51 84 8.1 46.5
01:25 1018 30.06 847 25.01 10.4 50.7 86 8.2 46.8
01:30 1018 30.06 847 25.01 10.2 50.3 87 8.1 46.6
01:35 1018 30.06 847 25.01 10.2 50.3 86 8 46.5
01:40 1018 30.06 847 25.01 10 49.9 87 8 46.3
01:45 1018 30.06 847 25.01 10 49.9 87 7.8 46.1
01:50 1018 30.06 847 25.01 10.1 50.1 86 7.8 46.1
01:55 1018 30.06 847 25.01 10.3 50.5 85 8 46.3
02:00 1018 30.06 847 25.01 10.1 50.2 86 7.9 46.2
02:05 1018 30.06 847 25.01 10.1 50.2 86 7.8 46
02:10 1018 30.06 847 25.01 10.2 50.3 85 7.7 45.9
02:15 1018 30.06 847 25.01 10.3 50.5 84 7.7 45.9
02:20 1018 30.06 847 25.01 10.3 50.6 84 7.8 46
02:25 1018 30.06 847 25.01 10.2 50.4 84 7.7 45.9
02:30 1018 30.06 847 25.01 10.1 50.3 85 7.8 46
02:35 1018 30.06 847 25.01 9.9 49.8 86 7.6 45.8
02:40 1018 30.06 847 25.01 9.9 49.8 85 7.5 45.4
02:45 1018 30.06 847 25.01 9.9 49.9 85 7.6 45.7
02:50 1018 30.06 847 25.01 9.6 49.4 86 7.4 45.3
02:55 1018 30.06 847 25.01 9.6 49.3 86 7.3 45.2
03:00 1018 30.06 847 25.01 9.5 49.1 86 7.3 45.1
03:05 1018 30.06 847 25.01 9.8 49.7 85 7.4 45.4
03:10 1018 30.06 847 25.01 9.7 49.4 86 7.5 45.5
03:15 1018 30.06 847 25.01 9.8 49.6 85 7.4 45.4
03:20 1018 30.06 847 25.01 10 50.1 84 7.6 45.6
03:25 1018 30.06 847 25.01 10 50 84 7.5 45.4
03:30 1018 30.06 847 25.01 9.7 49.5 85 7.4 45.4
03:35 1018 30.06 847 25.01 9.6 49.3 86 7.3 45.2
03:40 1018 30.06 847 25.01 9.4 49 86 7.2 44.9
03:45 1018 30.06 847 25.01 9.7 49.4 84 7.1 44.8
03:50 1018 30.06 847 25.01 9.9 49.9 84 7.3 45.2
03:55 1018 30.06 847 25.01 10.1 50.3 82 7.3 45.1
04:00 1018 30.06 847 25.01 10.1 50.2 83 7.4 45.3
04:05 1018 30.06 847 25.01 10.2 50.4 81 7.2 44.9
04:10 1018 30.06 847 25.01 10.4 50.7 82 7.5 45.5
04:15 1018 30.06 847 25.01 9.9 49.8 84 7.3 45.2
04:20 1018 30.06 847 25.01 9.8 49.7 84 7.2 45
04:25 1018 30.06 847 25.01 10.1 50.1 81 7 44.6
04:30 1018 30.06 847 25.01 10.3 50.5 81 7.2 44.9
04:35 1018 30.06 847 25.01 10.5 50.9 81 7.3 45.1
04:40 1018 30.06 847 25.01 10.2 50.4 82 7.3 45.1
04:45 1018 30.06 847 25.01 10.2 50.3 82 7.2 45
04:50 1018 30.06 847 25.01 10.2 50.4 83 7.4 45.3
04:55 1018 30.06 847 25.01 10.3 50.5 81 7.2 44.9
05:00 1018 30.06 847 25.01 10.8 51.4 79 7.2 45
05:05 1018 30.06 847 25.01 10.7 51.3 81 7.5 45.5
05:10 1018 30.06 847 25.01 10.2 50.3 82 7.2 45
05:15 1018 30.06 847 25.01 10.1 50.3 82 7.2 45
05:20 1018 30.06 847 25.01 9.9 49.8 84 7.3 45.2
05:25 1018 30.06 847 25.01 9.7 49.4 85 7.3 45.1
05:30 1018 30.06 847 25.01 9.3 48.7 87 7.2 45
05:35 1018 30.06 847 25.01 8.9 47.9 89 7.1 44.7
05:40 1018 30.06 847 25.01 8.6 47.6 89 6.9 44.5
05:45 1018 30.06 847 25.01 8.6 47.6 89 7 44.5
05:50 1018 30.06 847 25.01 8.8 47.8 89 7 44.6
05:55 1018 30.06 847 25.01 8.9 48 88 7.1 44.8
06:00 1018 30.06 847 25.01 9 48.2 88 7.2 44.9
06:05 1018 30.06 847 25.01 9.2 48.6 88 7.3 45.1
06:10 1018 30.06 847 25.01 9.2 48.6 87 7.2 44.9
06:15 1018 30.06 847 25.01 9.5 49.1 86 7.2 44.9
06:20 1018 30.06 847 25.01 9.9 49.8 84 7.4 45.3
06:25 1018 30.06 847 25.01 10.1 50.2 83 7.3 45.2
06:30 1018 30.06 847 25.01 10.1 50.1 84 7.5 45.5
06:35 1018 30.06 847 25.01 9.8 49.6 85 7.5 45.4
06:40 1018 30.06 847 25.01 9.7 49.4 85 7.3 45.2
06:45 1018 30.06 847 25.01 9.8 49.6 85 7.4 45.4
06:50 1018 30.06 847 25.01 9.8 49.6 85 7.4 45.3
06:55 1018 30.06 847 25.01 9.9 49.8 85 7.5 45.4
07:00 1018 30.06 847 25.01 10 50 84 7.5 45.5
07:05 1018 30.06 847 25.01 10.2 50.4 85 7.7 45.9
07:10 1018 30.06 847 25.01 10.3 50.6 83 7.7 45.8
07:15 1018 30.06 847 25.01 10.6 51 83 7.7 45.9
07:20 1018 30.06 847 25.01 10.6 51.1 82 7.7 45.9
07:25 1018 30.06 847 25.01 10.7 51.3 83 7.9 46.3
07:30 1018 30.06 847 25.01 10.7 51.3 83 8 46.4
07:35 1018 30.06 847 25.01 10.8 51.4 83 7.9 46.3
07:40 1018 30.06 847 25.01 10.8 51.5 83 8 46.5
07:45 1018 30.06 847 25.01 11 51.7 83 8.1 46.6
07:50 1018 30.06 847 25.01 11 51.7 82 8 46.4
07:55 1018 30.06 847 25.01 11 51.8 82 8 46.5
08:00 1018 30.06 847 25.01 11 51.9 82 8.2 46.7
08:05 1018 30.06 847 25.01 11.1 52 82 8.3 46.9
08:10 1018 30.06 847 25.01 11.6 52.8 81 8.4 47.1
08:15 1018 30.06 847 25.01 12.3 54.1 77 8.3 46.9
08:20 1018 30.06 847 25.01 12.8 55 76 8.7 47.6
08:25 1018 30.06 847 25.01 13 55.4 74 8.5 47.3
08:30 1018 30.06 847 25.01 13.4 56.1 74 8.8 47.8
08:35 1018 30.06 847 25.01 13.5 56.3 71 8.4 47.2
08:40 1018 30.06 847 25.01 13.9 57 72 8.9 48.1
08:45 1018 30.06 847 25.01 14.6 58.3 69 9.1 48.4
08:50 1018 30.06 847 25.01 14.7 58.5 67 8.8 47.8
08:55 1018 30.06 847 25.01 14.9 58.8 67 8.9 48.1
09:00 1018 30.06 847 25.01 14.8 58.6 68 8.9 48
09:05 1018 30.06 847 25.01 15.5 59.8 64 8.8 47.9
09:10 1018 30.06 847 25.01 15.9 60.5 64 9.1 48.4
09:15 1018 30.06 847 25.01 16.1 61 63 9 48.2
09:20 1018 30.06 847 25.01 16.4 61.5 62 9.1 48.4
09:25 1018 30.06 847 25.01 16.3 61.3 62 9 48.2
09:30 1018 30.06 847 25.01 16.5 61.8 60 8.8 47.8
09:35 1018 30.06 847 25.01 17 62.6 56 8.2 46.8
09:40 1017 30.03 847 25.01 17.1 62.8 57 8.5 47.3
09:45 1017 30.03 847 25.01 17.4 63.4 57 8.9 47.9
09:50 1017 30.03 847 25.01 17.7 63.9 57 9.2 48.6
09:55 1017 30.03 847 25.01 18.4 65 55 9.4 48.8
10:00 1017 30.03 847 25.01 18.4 65.1 55 9.2 48.5
10:05 1017 30.03 847 25.01 19.2 66.5 54 9.8 49.7
10:10 1017 30.03 846 24.98 18.7 65.6 59 10.6 51.1
10:15 1017 30.03 846 24.98 18.5 65.3 57 9.9 49.8
10:20 1017 30.03 846 24.98 18.5 65.4 58 10.3 50.6
10:25 1017 30.03 846 24.98 17.6 63.7 61 10.2 50.3
10:30 1017 30.03 846 24.98 18.1 64.5 60 10.4 50.6
10:35 1017 30.03 846 24.98 18.4 65.1 61 10.9 51.6
10:40 1017 30.03 846 24.98 17.8 64.1 63 10.7 51.3
10:45 1017 30.03 846 24.98 18.5 65.3 59 10.4 50.8
10:50 1017 30.03 846 24.98 18.8 65.8 61 11.1 52
10:55 1017 30.03 846 24.98 18.8 65.9 58 10.5 50.8
11:00 1017 30.03 846 24.98 19.4 66.9 57 10.7 51.2
11:05 1017 30.03 846 24.98 18.8 65.9 57 10.3 50.6
11:10 1017 30.03 846 24.98 18.9 66 56 10.1 50.2
11:15 1017 30.03 846 24.98 19 66.3 55 9.8 49.7
11:20 1017 30.03 846 24.98 19.5 67.1 52 9.4 49
11:25 1017 30.03 846 24.98 19.6 67.4 50 9.1 48.3
11:30 1016 30 846 24.98 19.4 67 53 9.9 49.7
11:35 1016 30 846 24.98 18.8 65.9 57 10.2 50.3
11:40 1016 30 846 24.98 19.1 66.4 55 9.9 49.8
11:45 1016 30 846 24.98 19.1 66.4 54 9.6 49.3
11:50 1016 30 845 24.95 19.3 66.7 54 10 49.9
11:55 1016 30 845 24.95 20.1 68.2 52 10.2 50.4
12:00 1016 30 845 24.95 21.1 69.9 49 10 49.9
12:05 1016 30 845 24.95 21.6 70.9 49 10.6 51.1
12:10 1016 30 845 24.95 20.7 69.3 52 10.5 50.9
12:15 1016 30 845 24.95 21.5 70.8 50 10.7 51.2
12:20 1016 30 845 24.95 21.2 70.2 53 11.4 52.5
12:25 1016 30 845 24.95 20.7 69.3 52 10.7 51.2
12:30 1016 30 845 24.95 20.4 68.7 52 10.3 50.6
12:35 1016 30 845 24.95 21 69.8 50 10.2 50.4
12:40 1016 30 845 24.95 20.3 68.6 56 11.5 52.6
12:45 1016 30 845 24.95 20.1 68.2 54 10.7 51.2
12:50 1016 30 845 24.95 20.3 68.6 54 10.8 51.5
12:55 1015 29.97 845 24.95 19.8 67.7 55 10.7 51.3
13:00 1015 29.97 845 24.95 19.9 67.8 53 10.2 50.4
13:05 1015 29.97 845 24.95 19.8 67.6 51 9.5 49.2
13:10 1015 29.97 845 24.95 19.7 67.4 53 9.9 49.8
13:15 1015 29.97 844 24.92 19.1 66.4 54 9.8 49.7
13:20 1015 29.97 844 24.92 19.6 67.3 53 10 50
13:25 1015 29.97 844 24.92 20.1 68.2 52 10.2 50.3
13:30 1015 29.97 844 24.92 19.7 67.5 56 10.7 51.3
13:35 1015 29.97 844 24.92 19.4 66.9 60 11.5 52.7
13:40 1015 29.97 844 24.92 19.1 66.4 60 11.3 52.4
13:45 1015 29.97 844 24.92 18.8 65.9 64 12 53.5
13:50 1015 29.97 844 24.92 18.3 64.9 69 12.6 54.7
13:55 1015 29.97 844 24.92 17.5 63.5 73 12.7 54.8
14:00 1015 29.97 844 24.92 17.7 63.9 71 12.5 54.5
14:05 1015 29.97 844 24.92 18.1 64.7 69 12.5 54.5
14:10 1014 29.94 844 24.92 18.9 66 66 12.5 54.4
14:15 1014 29.94 844 24.92 18.2 64.7 71 12.9 55.3
14:20 1014 29.94 844 24.92 17.2 63 70 11.7 53.1
14:25 1014 29.94 843 24.89 17.8 64.1 65 11.4 52.4
14:30 1014 29.94 844 24.92 18.2 64.7 66 11.9 53.4
14:35 1014 29.94 844 24.92 17.8 64 66 11.3 52.4
14:40 1014 29.94 844 24.92 17.4 63.4 68 11.6 52.9
14:45 1014 29.94 843 24.89 17.4 63.4 66 11.2 52.1
14:50 1014 29.94 843 24.89 17.6 63.6 66 11.2 52.2
14:55 1014 29.94 844 24.92 17.3 63.2 70 11.9 53.4
15:00 1014 29.94 844 24.92 16.6 61.9 75 12.3 54.1
15:05 1014 29.94 844 24.92 16.3 61.4 76 12.1 53.7
15:10 1015 29.97 844 24.92 16.5 61.6 69 10.9 51.6
15:15 1015 29.97 844 24.92 16.3 61.3 75 11.8 53.2
15:20 1015 29.97 844 24.92 16.3 61.3 77 12.2 54
15:25 1015 29.97 844 24.92 16.1 61 78 12.3 54.2
15:30 1015 29.97 844 24.92 15.7 60.2 82 12.6 54.7
15:35 1015 29.97 844 24.92 15.5 59.9 79 11.8 53.3
15:40 1015 29.97 844 24.92 15.3 59.5 76 11 51.8
15:45 1015 29.97 844 24.92 15 59 78 11.2 52.1
15:50 1015 29.97 844 24.92 15.1 59.3 79 11.6 52.8
15:55 1015 29.97 844 24.92 15.1 59.2 77 11.1 52
16:00 1015 29.97 844 24.92 15 59 79 11.4 52.5
16:05 1015 29.97 844 24.92 14.8 58.7 82 11.9 53.4
16:10 1015 29.97 845 24.95 14.3 57.8 85 11.8 53.2
16:15 1016 30 845 24.95 13.9 57 85 11.4 52.5
16:20 1016 30 845 24.95 13.2 55.7 83 10.5 50.8
16:25 1016 30 846 24.98 12.3 54.1 89 10.5 51
16:30 1016 30 845 24.95 11.2 52.1 93 10.1 50.3
16:35 1016 30 845 24.95 10.9 51.7 95 10.1 50.2
16:40 1016 30 845 24.95 11 51.7 95 10.2 50.4
16:45 1016 30 845 24.95 11.2 52.1 96 10.5 51
16:50 1016 30 845 24.95 11.3 52.3 96 10.6 51.1
16:55 1016 30 845 24.95 11.4 52.5 96 10.7 51.3
17:00 1016 30 845 24.95 11.5 52.7 96 10.9 51.6
17:05 1016 30 845 24.95 11.5 52.8 96 11 51.7
17:10 1016 30 845 24.95 11.5 52.6 96 10.9 51.5
17:15 1016 30 845 24.95 11.4 52.5 96 10.8 51.4
17:20 1016 30 846 24.98 11.3 52.3 96 10.7 51.2
17:25 1017 30.03 846 24.98 11.3 52.3 96 10.6 51.2
17:30 1017 30.03 846 24.98 11.3 52.3 96 10.6 51.1
17:35 1017 30.03 846 24.98 11.3 52.3 96 10.6 51.2
17:40 1017 30.03 846 24.98 11.3 52.3 96 10.6 51
17:45 1016 30 846 24.98 11.3 52.4 95 10.6 51.1
17:50 1016 30 846 24.98 11.3 52.3 96 10.6 51.2
17:55 1016 30 846 24.98 11.2 52.2 96 10.6 51.1
18:00 1016 30 845 24.95 11.3 52.4 96 10.7 51.3
18:05 1016 30 845 24.95 11.4 52.5 96 10.8 51.5
18:10 1016 30 845 24.95 11.5 52.7 96 10.9 51.7
18:15 1016 30 845 24.95 11.6 52.9 96 11 51.8
18:20 1016 30 845 24.95 11.7 53.1 96 11.1 51.9
18:25 1016 30 845 24.95 11.8 53.2 95 11.1 52
18:30 1016 30 845 24.95 11.7 53.1 95 11 51.8
18:35 1016 30 845 24.95 11.7 53.1 95 11 51.8
18:40 1016 30 845 24.95 11.7 53 95 10.9 51.7
18:45 1016 30 845 24.95 11.6 52.9 95 10.9 51.5
18:50 1016 30 845 24.95 11.6 52.8 95 10.8 51.5
18:55 1016 30 845 24.95 11.6 52.9 96 10.9 51.6
19:00 1016 30 845 24.95 11.6 52.9 95 10.9 51.5
19:05 1016 30 845 24.95 11.5 52.8 95 10.8 51.5
19:10 1016 30 845 24.95 11.5 52.6 95 10.7 51.3
19:15 1016 30 845 24.95 11.5 52.6 95 10.7 51.3
19:20 1016 30 845 24.95 11.5 52.7 96 10.8 51.5
19:25 1016 30 845 24.95 11.5 52.6 95 10.7 51.3
19:30 1016 30 845 24.95 11.5 52.7 95 10.8 51.4
19:35 1016 30 845 24.95 11.5 52.6 95 10.8 51.4
19:40 1016 30 845 24.95 11.5 52.6 95 10.7 51.3
19:45 1016 30 845 24.95 11.4 52.4 95 10.6 51.1
19:50 1016 30 845 24.95 11.3 52.4 95 10.5 50.9
19:55 1016 30 845 24.95 11.3 52.4 95 10.6 51
20:00 1016 30 845 24.95 11.4 52.6 95 10.7 51.3
20:05 1016 30 845 24.95 11.4 52.5 95 10.6 51
20:10 1016 30 845 24.95 11.2 52.1 95 10.5 50.9
20:15 1015 29.97 845 24.95 11.3 52.3 95 10.6 51
20:20 1016 30 845 24.95 11.3 52.4 95 10.6 51
20:25 1016 30 845 24.95 11.2 52.2 95 10.5 51
20:30 1016 30 845 24.95 11.1 52 96 10.4 50.8
20:35 1016 30 845 24.95 10.9 51.7 96 10.4 50.7
20:40 1016 30 845 24.95 10.9 51.6 97 10.4 50.7
20:45 1016 30 845 24.95 10.9 51.6 97 10.4 50.7
20:50 1016 30 845 24.95 10.8 51.5 96 10.2 50.4
20:55 1015 29.97 845 24.95 10.7 51.3 96 10.2 50.3
21:00 1015 29.97 845 24.95 10.8 51.4 97 10.2 50.4
21:05 1015 29.97 845 24.95 10.8 51.5 96 10.2 50.4
21:10 1015 29.97 845 24.95 10.7 51.3 96 10.1 50.1
21:15 1015 29.97 845 24.95 10.7 51.2 96 10 50.1
21:20 1015 29.97 844 24.92 10.6 51.2 96 10.1 50.1
21:25 1015 29.97 844 24.92 10.7 51.3 96 10.2 50.3
21:30 1015 29.97 844 24.92 10.7 51.3 96 10.1 50.2
21:35 1015 29.97 844 24.92 10.7 51.3 96 10.1 50.2
21:40 1015 29.97 844 24.92 10.8 51.4 96 10.1 50.2
21:45 1015 29.97 844 24.92 10.7 51.3 96 10.1 50.1
21:50 1015 29.97 845 24.95 10.7 51.2 96 10 50
21:55 1015 29.97 845 24.95 10.7 51.2 95 9.9 49.9
22:00 1015 29.97 845 24.95 10.7 51.2 96 10 50.1
22:05 1015 29.97 845 24.95 10.6 51.1 96 10.1 50.1
22:10 1015 29.97 845 24.95 10.6 51 96 10 50.1
22:15 1015 29.97 845 24.95 10.6 51.2 96 10 50.1
22:20 1015 29.97 845 24.95 10.6 51.1 96 10 50.1
22:25 1015 29.97 845 24.95 10.6 51.1 96 10 50
22:30 1015 29.97 845 24.95 10.6 51 96 10 50
22:35 1015 29.97 845 24.95 10.6 51.2 96 10 50
22:40 1015 29.97 844 24.92 10.6 51.2 96 10 50
22:45 1015 29.97 844 24.92 10.7 51.2 96 10 50.1
22:50 1015 29.97 844 24.92 10.7 51.3 96 10.1 50.1
22:55 1015 29.97 844 24.92 10.8 51.4 96 10.2 50.3
23:00 1015 29.97 844 24.92 10.9 51.5 96 10.2 50.4
23:05 1015 29.97 844 24.92 10.9 51.6 96 10.2 50.4
23:10 1015 29.97 844 24.92 11 51.7 95 10.3 50.5
23:15 1015 29.97 844 24.92 10.9 51.7 95 10.2 50.4
23:20 1015 29.97 844 24.92 10.9 51.6 96 10.2 50.4
23:25 1015 29.97 844 24.92 10.8 51.5 96 10.2 50.3
23:30 1015 29.97 844 24.92 10.9 51.5 96 10.2 50.4
23:35 1015 29.97 844 24.92 10.8 51.4 96 10.2 50.3
23:40 1015 29.97 844 24.92 10.8 51.5 96 10.2 50.4
23:45 1015 29.97 844 24.92 10.8 51.4 96 10.2 50.3
23:50 1015 29.97 844 24.92 10.8 51.4 96 10.2 50.4
23:55 1014 29.94 844 24.92 10.8 51.4 96 10.2 50.4
24:00 1014 29.94 844 24.92 10.7 51.3 97 10.2 50.3